Time;durP1;ratioP1;P1;durP2;ratioP2;P2;SDS_P1;SDS_P2;PMS_P1;PMS_P2;Temp;Humidity;BMP_temperature;BMP_pressure;BME280_temperature;BME280_humidity;BME280_pressure;Samples;Min_cycle;Max_cycle;Signal;HPM_P1;HPM_P2
2022/02/27 00:01:26;;;;;;;;;;;1.60;99.90;;;;;;4949265;28;19927;-75
2022/02/27 00:03:53;;;;;;;;;;;1.60;99.90;;;;;;4948787;28;19930;-74
2022/02/27 00:06:20;;;;;;;;;;;1.60;99.90;;;;;;4950570;28;19934;-75
2022/02/27 00:08:46;;;;;;;;;;;1.60;99.90;;;;;;4955026;28;19935;-75
2022/02/27 00:11:13;;;;;;;;;;;1.60;99.90;;;;;;4953867;28;19927;-75
2022/02/27 00:13:40;;;;;;;;;;;1.70;99.90;;;;;;4950193;28;19972;-74
2022/02/27 00:16:08;;;;;;;;;;;1.60;99.90;;;;;;4952153;28;19945;-74
2022/02/27 00:18:34;;;;;;;;;;;1.60;99.90;;;;;;4948123;28;20576;-74
2022/02/27 00:21:01;;;;;;;;;;;1.60;99.90;;;;;;4948513;28;19926;-74
2022/02/27 00:23:28;;;;;;;;;;;1.50;99.90;;;;;;4950689;28;19985;-74
2022/02/27 00:25:55;;;;;;;;;;;1.50;99.90;;;;;;4951451;28;19942;-75
2022/02/27 00:28:22;;;;;;;;;;;1.40;99.90;;;;;;4951686;28;19933;-74
2022/02/27 00:30:48;;;;;;;;;;;1.40;99.90;;;;;;4959181;28;19930;-75
2022/02/27 00:33:16;;;;;;;;;;;1.40;99.90;;;;;;4947040;28;19926;-74
2022/02/27 00:35:43;;;;;;;;;;;1.30;99.90;;;;;;4948849;28;19933;-75
2022/02/27 00:38:09;;;;;;;;;;;1.30;99.90;;;;;;4949201;28;19933;-74
2022/02/27 00:40:38;;;;;;;;;;;1.30;99.90;;;;;;4947963;28;19942;-74
2022/02/27 00:43:04;;;;;;;;;;;1.30;99.90;;;;;;4946898;28;19934;-74
2022/02/27 00:45:31;;;;;;;;;;;1.30;99.90;;;;;;4944802;28;20345;-75
2022/02/27 00:47:58;;;;;;;;;;;1.20;99.90;;;;;;4945491;28;20489;-74
2022/02/27 00:50:26;;;;;;;;;;;1.10;99.90;;;;;;4947234;28;20331;-74
2022/02/27 00:52:53;;;;;;;;;;;1.20;99.90;;;;;;4947789;28;19933;-74
2022/02/27 00:55:19;;;;;;;;;;;1.10;99.90;;;;;;4949655;28;19926;-72
2022/02/27 00:57:46;;;;;;;;;;;1.10;99.90;;;;;;4946077;28;20377;-72
2022/02/27 01:00:13;;;;;;;;;;;1.10;99.90;;;;;;4948073;28;19927;-72
2022/02/27 01:02:40;;;;;;;;;;;1.00;99.90;;;;;;4946117;28;20507;-72
2022/02/27 01:05:07;;;;;;;;;;;1.00;99.90;;;;;;4947382;28;19956;-73
2022/02/27 01:07:35;;;;;;;;;;;1.00;99.90;;;;;;4945913;28;20374;-73
2022/02/27 01:10:01;;;;;;;;;;;1.00;99.90;;;;;;4947299;28;20400;-74
2022/02/27 01:12:28;;;;;;;;;;;1.00;99.90;;;;;;4945894;28;19927;-73
2022/02/27 01:14:55;;;;;;;;;;;0.90;99.90;;;;;;4948722;28;19935;-74
2022/02/27 01:17:21;;;;;;;;;;;1.00;99.90;;;;;;4945792;28;19926;-73
2022/02/27 01:19:49;;;;;;;;;;;1.00;99.90;;;;;;4946885;28;19926;-74
2022/02/27 01:22:16;;;;;;;;;;;1.00;99.90;;;;;;4945549;28;19930;-74
2022/02/27 01:24:44;;;;;;;;;;;0.90;99.90;;;;;;4947303;28;20010;-74
2022/02/27 01:27:10;;;;;;;;;;;0.90;99.90;;;;;;4944177;28;20352;-74
2022/02/27 01:29:37;;;;;;;;;;;0.80;99.90;;;;;;4945208;28;20286;-74
2022/02/27 01:32:04;;;;;;;;;;;0.90;99.90;;;;;;4946623;28;19927;-74
2022/02/27 01:34:32;;;;;;;;;;;0.90;99.90;;;;;;4945467;28;20362;-73
2022/02/27 01:36:59;;;;;;;;;;;0.90;99.90;;;;;;4946920;28;20297;-74
2022/02/27 01:39:25;;;;;;;;;;;0.90;99.90;;;;;;4947897;28;19959;-73
2022/02/27 01:41:54;;;;;;;;;;;0.80;99.90;;;;;;4945341;28;20014;-73
2022/02/27 01:44:21;;;;;;;;;;;0.80;99.90;;;;;;4948939;28;19941;-73
2022/02/27 01:47:01;;;;;;;;;;;0.80;99.90;;;;;;4945246;28;19938;-73
2022/02/27 01:49:28;;;;;;;;;;;0.80;99.90;;;;;;4946478;28;19927;-73
2022/02/27 01:51:55;;;;;;;;;;;0.80;99.90;;;;;;4944066;28;19933;-73
2022/02/27 01:54:22;;;;;;;;;;;0.70;99.90;;;;;;4945165;28;19994;-73
2022/02/27 01:56:48;;;;;;;;;;;0.70;99.90;;;;;;4959228;28;19926;-73
2022/02/27 01:59:17;;;;;;;;;;;0.70;99.90;;;;;;4946684;28;19934;-74
2022/02/27 02:01:44;;;;;;;;;;;0.80;99.90;;;;;;4947822;28;20389;-73
2022/02/27 02:04:11;;;;;;;;;;;0.80;99.90;;;;;;4949997;28;19933;-74
2022/02/27 02:06:37;;;;;;;;;;;0.70;99.90;;;;;;4947583;28;19953;-74
2022/02/27 02:09:05;;;;;;;;;;;0.70;99.90;;;;;;4946774;28;19926;-73
2022/02/27 02:11:32;;;;;;;;;;;0.70;99.90;;;;;;4941234;28;19934;-74
2022/02/27 02:13:59;;;;;;;;;;;0.70;99.90;;;;;;4947282;28;19935;-75
2022/02/27 02:16:26;;;;;;;;;;;0.70;99.90;;;;;;4944400;28;20020;-73
2022/02/27 02:18:53;;;;;;;;;;;0.70;99.90;;;;;;4946186;28;19926;-73
2022/02/27 02:21:21;;;;;;;;;;;0.70;99.90;;;;;;4947173;28;20017;-74
2022/02/27 02:23:48;;;;;;;;;;;0.60;99.90;;;;;;4949686;28;19976;-74
2022/02/27 02:26:15;;;;;;;;;;;0.60;99.90;;;;;;4947051;28;19935;-74
2022/02/27 02:28:41;;;;;;;;;;;0.70;99.90;;;;;;4945854;28;19926;-74
2022/02/27 02:31:08;;;;;;;;;;;0.60;99.90;;;;;;4945524;28;19930;-75
2022/02/27 02:33:35;;;;;;;;;;;0.50;99.90;;;;;;4947964;28;20021;-75
2022/02/27 02:36:02;;;;;;;;;;;0.40;99.90;;;;;;4945107;28;19934;-75
2022/02/27 02:38:30;;;;;;;;;;;0.40;99.90;;;;;;4944492;28;19933;-75
2022/02/27 02:40:56;;;;;;;;;;;0.40;99.90;;;;;;4943051;28;20425;-74
2022/02/27 02:43:23;;;;;;;;;;;0.40;99.90;;;;;;4945402;28;19926;-74
2022/02/27 02:45:50;;;;;;;;;;;0.40;99.90;;;;;;4946709;28;19934;-75
2022/02/27 02:48:17;;;;;;;;;;;0.50;99.90;;;;;;4945599;28;19926;-74
2022/02/27 02:50:44;;;;;;;;;;;0.50;99.90;;;;;;4946237;28;21828;-74
2022/02/27 02:53:10;;;;;;;;;;;0.40;99.90;;;;;;4945819;28;19927;-75
2022/02/27 02:55:38;;;;;;;;;;;0.40;99.90;;;;;;4946650;28;20386;-75
2022/02/27 02:58:05;;;;;;;;;;;0.40;99.90;;;;;;4943380;28;20397;-74
2022/02/27 03:00:33;;;;;;;;;;;0.40;99.90;;;;;;4946986;28;19957;-74
2022/02/27 03:02:59;;;;;;;;;;;0.40;99.90;;;;;;4947974;29;19930;-74
2022/02/27 03:05:26;;;;;;;;;;;0.40;99.90;;;;;;4948078;28;20278;-74
2022/02/27 03:07:53;;;;;;;;;;;0.40;99.90;;;;;;4951600;28;20025;-73
2022/02/27 03:10:19;;;;;;;;;;;0.40;99.90;;;;;;4950552;28;19958;-73
2022/02/27 03:12:47;;;;;;;;;;;0.40;99.90;;;;;;4949727;28;19926;-73
2022/02/27 03:15:14;;;;;;;;;;;0.40;99.90;;;;;;4948657;28;20297;-73
2022/02/27 03:17:41;;;;;;;;;;;0.40;99.90;;;;;;4944367;28;20304;-74
2022/02/27 03:20:08;;;;;;;;;;;0.50;99.90;;;;;;4947261;28;19938;-73
2022/02/27 03:22:34;;;;;;;;;;;0.50;99.90;;;;;;4942022;28;19980;-73
2022/02/27 03:25:01;;;;;;;;;;;0.50;99.90;;;;;;4945392;28;19927;-73
2022/02/27 03:27:28;;;;;;;;;;;0.40;99.90;;;;;;4942229;28;19927;-73
2022/02/27 03:29:56;;;;;;;;;;;0.50;99.90;;;;;;4946615;28;19927;-74
2022/02/27 03:32:22;;;;;;;;;;;0.40;99.90;;;;;;4946992;28;19934;-73
2022/02/27 03:34:49;;;;;;;;;;;0.40;99.90;;;;;;4949514;28;20223;-74
2022/02/27 03:37:16;;;;;;;;;;;0.40;99.90;;;;;;4947364;28;20013;-74
2022/02/27 03:39:42;;;;;;;;;;;0.30;99.90;;;;;;4952283;28;20304;-74
2022/02/27 03:42:09;;;;;;;;;;;0.40;99.90;;;;;;4951011;28;19933;-74
2022/02/27 03:44:36;;;;;;;;;;;0.40;99.90;;;;;;4951778;28;19926;-74
2022/02/27 03:47:04;;;;;;;;;;;0.30;99.90;;;;;;4948001;28;19926;-73
2022/02/27 03:49:31;;;;;;;;;;;0.30;99.90;;;;;;4950915;28;19927;-72
2022/02/27 03:51:58;;;;;;;;;;;0.20;99.90;;;;;;4948941;28;19930;-72
2022/02/27 03:54:24;;;;;;;;;;;0.30;99.90;;;;;;4950128;28;19927;-72
2022/02/27 03:56:51;;;;;;;;;;;0.40;99.90;;;;;;4947990;28;19966;-72
2022/02/27 03:59:18;;;;;;;;;;;0.30;99.90;;;;;;4949882;28;19933;-73
2022/02/27 04:01:44;;;;;;;;;;;0.20;99.90;;;;;;4946896;28;19930;-72
2022/02/27 04:04:12;;;;;;;;;;;0.20;99.90;;;;;;4948995;28;19926;-72
2022/02/27 04:06:39;;;;;;;;;;;0.20;99.90;;;;;;4946121;28;19935;-73
2022/02/27 04:09:06;;;;;;;;;;;0.20;99.90;;;;;;4944336;28;19933;-73
2022/02/27 04:11:32;;;;;;;;;;;0.20;99.90;;;;;;4951674;28;19957;-73
2022/02/27 04:13:59;;;;;;;;;;;0.30;99.90;;;;;;4952634;28;19931;-72
2022/02/27 04:16:26;;;;;;;;;;;0.20;99.90;;;;;;4948457;28;20382;-73
2022/02/27 04:18:52;;;;;;;;;;;0.10;99.90;;;;;;4947967;28;19941;-73
2022/02/27 04:21:20;;;;;;;;;;;0.20;99.90;;;;;;4946782;28;19926;-72
2022/02/27 04:23:47;;;;;;;;;;;0.10;99.90;;;;;;4949814;28;19931;-73
2022/02/27 04:26:14;;;;;;;;;;;0.10;99.90;;;;;;4949622;28;19927;-73
2022/02/27 04:28:41;;;;;;;;;;;0.20;99.90;;;;;;4947838;28;19973;-73
2022/02/27 04:31:07;;;;;;;;;;;0.10;99.90;;;;;;4949171;28;19972;-72
2022/02/27 04:33:34;;;;;;;;;;;0.10;99.90;;;;;;4946281;28;19927;-72
2022/02/27 04:36:00;;;;;;;;;;;0.10;99.90;;;;;;4946465;28;19926;-73
2022/02/27 04:38:28;;;;;;;;;;;0.10;99.90;;;;;;4947213;28;19932;-73
2022/02/27 04:40:55;;;;;;;;;;;0.10;99.90;;;;;;4948365;28;19935;-73
2022/02/27 04:43:22;;;;;;;;;;;0.10;99.90;;;;;;4946942;28;19926;-73
2022/02/27 04:45:48;;;;;;;;;;;0.10;99.90;;;;;;4948165;28;19933;-73
2022/02/27 04:48:15;;;;;;;;;;;0.20;99.90;;;;;;4947634;28;19933;-74
2022/02/27 04:50:42;;;;;;;;;;;0.10;99.90;;;;;;4947111;28;19926;-73
2022/02/27 04:53:08;;;;;;;;;;;0.10;99.90;;;;;;4947345;28;20019;-74
2022/02/27 04:55:36;;;;;;;;;;;0.10;99.90;;;;;;4945357;28;19926;-73
2022/02/27 04:58:03;;;;;;;;;;;0.10;99.90;;;;;;4943419;28;19945;-73
2022/02/27 05:00:30;;;;;;;;;;;0.00;99.90;;;;;;4947737;28;19931;-74
2022/02/27 05:02:56;;;;;;;;;;;0.00;99.90;;;;;;4944415;28;20043;-74
2022/02/27 05:05:23;;;;;;;;;;;0.00;99.90;;;;;;4944289;28;20385;-74
2022/02/27 05:07:50;;;;;;;;;;;0.00;99.90;;;;;;4947866;28;19934;-74
2022/02/27 05:10:16;;;;;;;;;;;0.00;99.90;;;;;;4947919;28;19936;-74
2022/02/27 05:12:44;;;;;;;;;;;0.00;99.90;;;;;;4944941;28;19978;-73
2022/02/27 05:15:11;;;;;;;;;;;0.00;99.90;;;;;;4950005;28;19940;-72
2022/02/27 05:17:38;;;;;;;;;;;-0.10;99.90;;;;;;4950843;28;19930;-74
2022/02/27 05:20:05;;;;;;;;;;;-0.10;99.90;;;;;;4949154;28;19926;-72
2022/02/27 05:22:32;;;;;;;;;;;-0.10;99.90;;;;;;4945439;28;19927;-73
2022/02/27 05:24:59;;;;;;;;;;;-0.10;99.90;;;;;;4948118;28;19926;-72
2022/02/27 05:27:25;;;;;;;;;;;-0.10;99.90;;;;;;4943452;28;19936;-72
2022/02/27 05:29:53;;;;;;;;;;;-0.10;99.90;;;;;;4944570;28;19927;-72
2022/02/27 05:32:20;;;;;;;;;;;-0.10;99.90;;;;;;4948556;28;19938;-72
2022/02/27 05:34:47;;;;;;;;;;;-0.10;99.90;;;;;;4949085;28;19933;-72
2022/02/27 05:37:13;;;;;;;;;;;-0.10;99.90;;;;;;4944082;28;19933;-73
2022/02/27 05:39:40;;;;;;;;;;;-0.20;99.90;;;;;;4950140;28;19926;-72
2022/02/27 05:42:07;;;;;;;;;;;-0.20;99.90;;;;;;4948254;28;20306;-72
2022/02/27 05:44:34;;;;;;;;;;;-0.20;99.90;;;;;;4949239;28;19942;-72
2022/02/27 05:47:02;;;;;;;;;;;-0.20;99.90;;;;;;4946636;28;19926;-73
2022/02/27 05:49:29;;;;;;;;;;;-0.20;99.90;;;;;;4946113;28;19940;-73
2022/02/27 05:51:56;;;;;;;;;;;-0.20;99.90;;;;;;4949328;28;19926;-73
2022/02/27 05:54:22;;;;;;;;;;;-0.30;99.90;;;;;;4949739;28;20473;-73
2022/02/27 05:56:49;;;;;;;;;;;-0.30;99.90;;;;;;4947895;28;20009;-73
2022/02/27 05:59:16;;;;;;;;;;;-0.30;99.90;;;;;;4947966;28;20515;-73
2022/02/27 06:01:43;;;;;;;;;;;-0.30;99.90;;;;;;4944989;28;20333;-73
2022/02/27 06:04:10;;;;;;;;;;;-0.30;99.90;;;;;;4949338;28;19934;-72
2022/02/27 06:06:37;;;;;;;;;;;-0.30;99.90;;;;;;4948414;28;19927;-72
2022/02/27 06:09:04;;;;;;;;;;;-0.30;99.90;;;;;;4947785;28;19926;-74
2022/02/27 06:11:30;;;;;;;;;;;-0.30;99.90;;;;;;4948017;28;19941;-73
2022/02/27 06:13:57;;;;;;;;;;;-0.30;99.90;;;;;;4950326;28;19933;-73
2022/02/27 06:16:24;;;;;;;;;;;-0.30;99.90;;;;;;4949807;28;19926;-73
2022/02/27 06:18:51;;;;;;;;;;;-0.30;99.90;;;;;;4946207;28;19953;-74
2022/02/27 06:21:19;;;;;;;;;;;-0.20;99.90;;;;;;4946711;28;19926;-74
2022/02/27 06:23:46;;;;;;;;;;;-0.20;99.90;;;;;;4948560;28;19934;-73
2022/02/27 06:26:13;;;;;;;;;;;-0.20;99.90;;;;;;4949877;28;19927;-74
2022/02/27 06:28:39;;;;;;;;;;;-0.20;99.90;;;;;;4946172;28;20463;-74
2022/02/27 06:31:06;;;;;;;;;;;-0.20;99.90;;;;;;4944911;28;19933;-74
2022/02/27 06:33:33;;;;;;;;;;;-0.20;99.90;;;;;;4943909;28;19927;-73
2022/02/27 06:35:59;;;;;;;;;;;-0.20;99.90;;;;;;4945039;28;19934;-73
2022/02/27 06:38:27;;;;;;;;;;;-0.20;99.90;;;;;;4946070;28;19934;-72
2022/02/27 06:40:54;;;;;;;;;;;-0.20;99.90;;;;;;4949805;28;19926;-72
2022/02/27 06:43:21;;;;;;;;;;;-0.30;99.90;;;;;;4946174;28;20000;-72
2022/02/27 06:45:47;;;;;;;;;;;-0.30;99.90;;;;;;4946583;28;20501;-73
2022/02/27 06:48:14;;;;;;;;;;;-0.30;99.90;;;;;;4947145;28;19927;-72
2022/02/27 06:50:41;;;;;;;;;;;-0.30;99.90;;;;;;4946840;28;19927;-73
2022/02/27 06:53:10;;;;;;;;;;;-0.40;99.90;;;;;;4947104;28;19927;-73
2022/02/27 06:55:38;;;;;;;;;;;-0.30;99.90;;;;;;4945827;28;19926;-73
2022/02/27 06:58:05;;;;;;;;;;;-0.30;99.90;;;;;;4945752;28;19930;-73
2022/02/27 07:00:32;;;;;;;;;;;-0.20;99.90;;;;;;4946494;28;19930;-73
2022/02/27 07:02:58;;;;;;;;;;;-0.30;99.90;;;;;;4948868;28;19927;-73
2022/02/27 07:05:25;;;;;;;;;;;-0.20;99.90;;;;;;4948268;28;20017;-74
2022/02/27 07:07:52;;;;;;;;;;;-0.20;99.90;;;;;;4945799;28;19930;-73
2022/02/27 07:10:18;;;;;;;;;;;-0.10;99.90;;;;;;4949317;28;19952;-73
2022/02/27 07:12:47;;;;;;;;;;;-0.10;99.90;;;;;;4947895;28;19933;-73
2022/02/27 07:15:14;;;;;;;;;;;0.00;99.90;;;;;;4949371;28;19927;-72
2022/02/27 07:17:41;;;;;;;;;;;0.00;99.90;;;;;;4946043;28;19933;-73
2022/02/27 07:20:08;;;;;;;;;;;0.10;99.90;;;;;;4948702;28;20043;-73
2022/02/27 07:22:35;;;;;;;;;;;0.10;99.90;;;;;;4945816;28;19927;-72
2022/02/27 07:25:04;;;;;;;;;;;0.20;99.90;;;;;;4949122;28;19933;-73
2022/02/27 07:27:30;;;;;;;;;;;0.20;99.90;;;;;;4943570;28;19927;-73
2022/02/27 07:29:58;;;;;;;;;;;0.20;99.90;;;;;;4946878;28;19926;-73
2022/02/27 07:32:25;;;;;;;;;;;0.30;99.90;;;;;;4944889;28;19938;-71
2022/02/27 07:34:52;;;;;;;;;;;0.40;99.90;;;;;;4943699;28;20013;-72
2022/02/27 07:37:18;;;;;;;;;;;0.40;99.90;;;;;;4947434;28;19935;-72
2022/02/27 07:39:45;;;;;;;;;;;0.40;99.90;;;;;;4941119;28;19927;-73
2022/02/27 07:42:12;;;;;;;;;;;0.60;99.90;;;;;;4943586;28;19931;-73
2022/02/27 07:44:38;;;;;;;;;;;0.50;99.90;;;;;;4946117;28;19934;-72
2022/02/27 07:47:07;;;;;;;;;;;0.70;99.90;;;;;;4943914;28;20030;-73
2022/02/27 07:49:33;;;;;;;;;;;0.80;99.90;;;;;;4944676;28;20002;-72
2022/02/27 07:52:01;;;;;;;;;;;0.90;99.90;;;;;;4945409;28;19970;-73
2022/02/27 07:54:27;;;;;;;;;;;0.90;99.90;;;;;;4943194;28;19988;-74
2022/02/27 07:56:54;;;;;;;;;;;1.00;99.90;;;;;;4941873;28;19957;-73
2022/02/27 07:59:21;;;;;;;;;;;1.10;99.90;;;;;;4946234;28;20402;-73
2022/02/27 08:01:47;;;;;;;;;;;1.10;99.90;;;;;;4946258;28;19938;-73
2022/02/27 08:04:16;;;;;;;;;;;1.20;99.90;;;;;;4942785;28;19927;-73
2022/02/27 08:06:42;;;;;;;;;;;1.30;99.90;;;;;;4943621;28;19953;-73
2022/02/27 08:09:10;;;;;;;;;;;1.30;99.90;;;;;;4947490;28;19994;-73
2022/02/27 08:11:37;;;;;;;;;;;1.50;99.90;;;;;;4946832;28;19926;-71
2022/02/27 08:14:04;;;;;;;;;;;1.50;99.90;;;;;;4942574;28;19934;-71
2022/02/27 08:16:30;;;;;;;;;;;2.10;99.90;;;;;;4943676;28;19970;-71
2022/02/27 08:18:58;;;;;;;;;;;3.70;97.70;;;;;;4948701;28;20614;-72
2022/02/27 08:21:26;;;;;;;;;;;4.80;92.80;;;;;;4947177;28;19980;-72
2022/02/27 08:23:52;;;;;;;;;;;5.20;88.80;;;;;;4947807;28;19934;-71
2022/02/27 08:26:19;;;;;;;;;;;5.40;83.10;;;;;;4946388;28;20277;-71
2022/02/27 08:28:46;;;;;;;;;;;5.60;81.10;;;;;;4950009;28;19927;-72
2022/02/27 08:31:13;;;;;;;;;;;5.10;81.30;;;;;;4946839;28;20025;-71
2022/02/27 08:33:39;;;;;;;;;;;5.40;80.80;;;;;;4945927;28;20351;-71
2022/02/27 08:36:06;;;;;;;;;;;6.10;76.60;;;;;;4946544;28;19926;-72
2022/02/27 08:38:34;;;;;;;;;;;6.20;74.40;;;;;;4947685;28;19934;-71
2022/02/27 08:41:01;;;;;;;;;;;6.30;71.90;;;;;;4946955;28;19926;-72
2022/02/27 08:43:33;;;;;;;;;;;6.30;71.20;;;;;;4946825;28;19927;-73
2022/02/27 08:46:00;;;;;;;;;;;6.50;68.90;;;;;;4947614;28;19970;-72
2022/02/27 08:48:28;;;;;;;;;;;6.10;69.00;;;;;;4944250;28;19933;-74
2022/02/27 08:50:55;;;;;;;;;;;6.50;68.10;;;;;;4947733;28;19930;-71
2022/02/27 08:53:23;;;;;;;;;;;6.70;67.10;;;;;;4946182;28;19956;-73
2022/02/27 08:55:53;;;;;;;;;;;6.50;69.30;;;;;;4946204;28;19935;-72
2022/02/27 08:58:19;;;;;;;;;;;6.50;66.10;;;;;;4948103;28;19927;-72
2022/02/27 09:00:48;;;;;;;;;;;7.10;68.00;;;;;;4948196;28;20029;-72
2022/02/27 09:03:15;;;;;;;;;;;6.90;63.70;;;;;;4943730;28;19926;-71
2022/02/27 09:05:43;;;;;;;;;;;7.10;62.40;;;;;;4944256;28;19938;-70
2022/02/27 09:08:10;;;;;;;;;;;7.50;62.30;;;;;;4943546;28;19969;-71
2022/02/27 09:10:36;;;;;;;;;;;7.60;60.10;;;;;;4945437;28;20017;-71
2022/02/27 09:13:04;;;;;;;;;;;7.60;58.10;;;;;;4944424;28;19941;-72
2022/02/27 09:15:31;;;;;;;;;;;8.20;56.00;;;;;;4946967;28;19932;-71
2022/02/27 09:17:58;;;;;;;;;;;7.90;55.20;;;;;;4942725;28;19927;-71
2022/02/27 09:20:24;;;;;;;;;;;7.60;55.60;;;;;;4947939;28;20396;-73
2022/02/27 09:22:51;;;;;;;;;;;8.30;55.10;;;;;;4945040;28;19935;-71
2022/02/27 09:25:18;;;;;;;;;;;8.30;51.50;;;;;;4945570;28;19944;-71
2022/02/27 09:27:45;;;;;;;;;;;8.20;51.70;;;;;;4944696;28;20012;-71
2022/02/27 09:30:13;;;;;;;;;;;8.10;51.00;;;;;;4946375;28;19934;-71
2022/02/27 09:32:40;;;;;;;;;;;8.40;49.60;;;;;;4948664;28;20072;-75
2022/02/27 09:35:07;;;;;;;;;;;9.20;47.80;;;;;;4944015;28;20274;-71
2022/02/27 09:37:36;;;;;;;;;;;10.50;41.60;;;;;;4949639;28;19935;-73
2022/02/27 09:40:06;;;;;;;;;;;10.50;38.60;;;;;;4937781;28;20317;-71
2022/02/27 09:42:34;;;;;;;;;;;9.80;40.00;;;;;;4932716;28;19930;-72
2022/02/27 09:45:01;;;;;;;;;;;8.90;41.00;;;;;;4932619;28;19946;-71
2022/02/27 09:47:29;;;;;;;;;;;9.20;39.20;;;;;;4932382;28;19973;-71
2022/02/27 09:49:56;;;;;;;;;;;9.00;39.60;;;;;;4931849;28;19937;-70
2022/02/27 09:52:31;;;;;;;;;;;7.00;44.30;;;;;;4931156;28;20385;-71
2022/02/27 09:54:59;;;;;;;;;;;6.60;46.30;;;;;;4933676;28;19934;-71
2022/02/27 09:57:26;;;;;;;;;;;6.10;47.60;;;;;;4934771;28;19935;-71
2022/02/27 09:59:53;;;;;;;;;;;5.90;49.50;;;;;;4930134;28;19934;-72
2022/02/27 10:02:19;;;;;;;;;;;6.10;50.00;;;;;;4932482;28;20439;-72
2022/02/27 10:04:50;;;;;;;;;;;6.20;48.70;;;;;;4933203;28;19933;-71
2022/02/27 10:07:18;;;;;;;;;;;6.10;48.80;;;;;;4929980;28;19930;-72
2022/02/27 10:09:45;;;;;;;;;;;6.00;49.40;;;;;;4933983;28;19941;-71
2022/02/27 10:12:16;;;;;;;;;;;6.10;49.80;;;;;;4948191;28;19930;-71
2022/02/27 10:14:55;;;;;;;;;;;6.30;49.50;;;;;;4949281;28;20404;-71
2022/02/27 10:17:27;;;;;;;;;;;6.40;46.80;;;;;;4948518;28;19949;-71
2022/02/27 10:19:59;;;;;;;;;;;6.30;46.20;;;;;;4930682;28;19936;-71
2022/02/27 10:22:29;;;;;;;;;;;6.50;46.30;;;;;;4941306;28;19930;-71
2022/02/27 10:24:56;;;;;;;;;;;6.50;44.20;;;;;;4942730;28;20597;-72
2022/02/27 10:27:23;;;;;;;;;;;6.50;43.70;;;;;;4945325;28;19926;-72
2022/02/27 10:29:49;;;;;;;;;;;6.60;44.80;;;;;;4942139;28;20036;-72
2022/02/27 10:32:26;;;;;;;;;;;6.60;44.10;;;;;;4938119;28;21459;-73
2022/02/27 10:34:53;;;;;;;;;;;6.70;44.80;;;;;;4945194;28;20029;-71
2022/02/27 10:37:24;;;;;;;;;;;6.70;43.30;;;;;;4939419;28;20067;-72
2022/02/27 10:39:52;;;;;;;;;;;6.80;44.00;;;;;;4941558;28;19993;-72
2022/02/27 10:42:19;;;;;;;;;;;6.80;43.70;;;;;;4944040;28;19927;-71
2022/02/27 10:44:51;;;;;;;;;;;6.80;43.70;;;;;;4943435;28;19926;-72
2022/02/27 10:47:18;;;;;;;;;;;6.90;44.30;;;;;;4944035;28;19926;-72
2022/02/27 10:49:45;;;;;;;;;;;7.10;43.90;;;;;;4944594;28;20320;-72
2022/02/27 10:52:13;;;;;;;;;;;7.10;43.60;;;;;;4944484;28;19934;-70
2022/02/27 10:54:42;;;;;;;;;;;7.10;44.00;;;;;;4943957;28;19931;-70
2022/02/27 10:57:10;;;;;;;;;;;7.10;43.60;;;;;;4945978;28;19962;-71
2022/02/27 10:59:38;;;;;;;;;;;7.20;44.00;;;;;;4935649;28;19935;-71
2022/02/27 11:02:04;;;;;;;;;;;7.40;45.00;;;;;;4944589;28;19957;-72
2022/02/27 11:04:33;;;;;;;;;;;7.50;43.00;;;;;;4936992;28;19927;-71
2022/02/27 11:06:59;;;;;;;;;;;7.40;43.20;;;;;;4943277;28;20468;-71
2022/02/27 11:09:26;;;;;;;;;;;7.40;41.20;;;;;;4944703;28;19935;-71
2022/02/27 11:11:55;;;;;;;;;;;7.50;42.60;;;;;;4942432;28;19934;-75
2022/02/27 11:14:22;;;;;;;;;;;7.70;41.10;;;;;;4941226;28;20035;-73
2022/02/27 11:16:50;;;;;;;;;;;7.80;39.30;;;;;;4943418;28;21477;-73
2022/02/27 11:19:17;;;;;;;;;;;7.80;39.00;;;;;;4939313;28;19926;-73
2022/02/27 11:21:44;;;;;;;;;;;7.90;39.40;;;;;;4944162;28;19956;-73
2022/02/27 11:24:12;;;;;;;;;;;8.00;39.40;;;;;;4943625;28;19926;-73
2022/02/27 11:26:43;;;;;;;;;;;8.00;38.40;;;;;;4944277;28;19966;-74
2022/02/27 11:29:13;;;;;;;;;;;8.10;39.00;;;;;;4942845;28;19933;-72
2022/02/27 11:31:41;;;;;;;;;;;8.10;38.00;;;;;;4943072;28;19937;-72
2022/02/27 11:34:13;;;;;;;;;;;8.30;36.90;;;;;;4939934;28;19926;-73
2022/02/27 11:36:39;;;;;;;;;;;8.40;37.00;;;;;;4942694;28;19978;-72
2022/02/27 11:40:27;;;;;;;;;;;8.50;37.20;;;;;;4944919;28;19933;-72
2022/02/27 11:41:53;;;;;;;;;;;8.70;34.10;;;;;;4948076;28;19933;-75
2022/02/27 11:44:31;;;;;;;;;;;8.80;34.60;;;;;;4948719;28;20404;-74
2022/02/27 11:47:03;;;;;;;;;;;8.80;32.70;;;;;;4949625;28;20350;-72
2022/02/27 11:49:30;;;;;;;;;;;8.90;31.90;;;;;;4944126;28;20311;-74
2022/02/27 11:52:17;;;;;;;;;;;8.80;30.40;;;;;;4930003;28;20477;-72
2022/02/27 11:54:46;;;;;;;;;;;9.00;30.30;;;;;;4938196;28;19933;-73
2022/02/27 11:57:14;;;;;;;;;;;9.00;29.90;;;;;;4936480;28;19931;-73
2022/02/27 11:59:56;;;;;;;;;;;9.10;30.40;;;;;;4934601;28;20301;-73
2022/02/27 12:02:24;;;;;;;;;;;9.20;29.60;;;;;;4936527;28;20404;-75
2022/02/27 12:04:52;;;;;;;;;;;9.20;28.70;;;;;;4936286;28;20365;-75
2022/02/27 12:07:19;;;;;;;;;;;9.30;29.10;;;;;;4936163;28;20329;-75
2022/02/27 12:09:56;;;;;;;;;;;9.30;28.60;;;;;;4936254;28;20479;-75
2022/02/27 12:12:41;;;;;;;;;;;9.40;29.00;;;;;;4936343;28;19931;-75
2022/02/27 12:15:20;;;;;;;;;;;9.40;28.10;;;;;;4926846;28;19961;-75
2022/02/27 12:17:53;;;;;;;;;;;9.40;28.90;;;;;;4934187;28;20041;-75
2022/02/27 12:20:39;;;;;;;;;;;9.40;28.20;;;;;;4932166;28;19937;-73
2022/02/27 12:23:08;;;;;;;;;;;9.50;27.60;;;;;;4933632;28;20400;-74
2022/02/27 12:25:35;;;;;;;;;;;9.60;28.00;;;;;;4933023;28;20484;-72
2022/02/27 12:28:02;;;;;;;;;;;9.70;26.70;;;;;;4934140;28;19930;-71
2022/02/27 12:30:32;;;;;;;;;;;9.80;27.30;;;;;;4933645;28;20017;-73
2022/02/27 12:33:06;;;;;;;;;;;10.00;27.70;;;;;;4935168;28;19935;-71
2022/02/27 12:35:33;;;;;;;;;;;10.20;26.50;;;;;;4933878;28;19935;-68
2022/02/27 12:38:03;;;;;;;;;;;10.10;26.10;;;;;;4935465;28;19931;-73
2022/02/27 12:40:30;;;;;;;;;;;10.00;25.60;;;;;;4934353;28;20029;-73
2022/02/27 12:43:00;;;;;;;;;;;10.00;25.80;;;;;;4934646;28;20397;-72
2022/02/27 12:45:29;;;;;;;;;;;9.80;25.90;;;;;;4934109;28;19941;-71
2022/02/27 12:48:09;;;;;;;;;;;9.90;26.10;;;;;;4936076;28;22196;-73
2022/02/27 12:50:42;;;;;;;;;;;10.00;25.30;;;;;;4935386;28;19937;-73
2022/02/27 12:53:09;;;;;;;;;;;9.90;26.00;;;;;;4935033;28;20409;-72
2022/02/27 12:55:38;;;;;;;;;;;9.90;24.60;;;;;;4931552;28;20539;-74
2022/02/27 12:58:07;;;;;;;;;;;9.90;25.60;;;;;;4929407;28;20380;-72
2022/02/27 13:00:35;;;;;;;;;;;10.00;25.30;;;;;;4937798;28;19926;-71
2022/02/27 13:03:12;;;;;;;;;;;10.00;24.50;;;;;;4947892;28;19933;-72
2022/02/27 13:05:40;;;;;;;;;;;10.20;23.70;;;;;;4945685;28;19948;-72
2022/02/27 13:08:07;;;;;;;;;;;10.10;23.60;;;;;;4943992;28;20021;-72
2022/02/27 13:10:34;;;;;;;;;;;10.30;24.20;;;;;;4947952;28;20029;-72
2022/02/27 13:13:00;;;;;;;;;;;10.40;23.80;;;;;;4945958;28;19944;-74
2022/02/27 13:15:27;;;;;;;;;;;10.40;23.70;;;;;;4949484;28;20449;-74
2022/02/27 13:17:54;;;;;;;;;;;10.50;22.60;;;;;;4938310;28;20621;-75
2022/02/27 13:20:24;;;;;;;;;;;10.50;22.10;;;;;;4932193;28;19938;-74
2022/02/27 13:22:51;;;;;;;;;;;10.50;23.00;;;;;;4936195;28;19941;-76
2022/02/27 13:25:18;;;;;;;;;;;10.50;22.00;;;;;;4934199;28;19936;-73
2022/02/27 13:27:46;;;;;;;;;;;10.40;21.30;;;;;;4937170;28;20244;-74
2022/02/27 13:30:14;;;;;;;;;;;10.60;21.50;;;;;;4932765;28;19942;-74
2022/02/27 13:32:42;;;;;;;;;;;10.60;22.20;;;;;;4939790;28;19934;-76
2022/02/27 13:35:10;;;;;;;;;;;10.60;21.20;;;;;;4947770;28;19926;-74
2022/02/27 13:37:38;;;;;;;;;;;10.60;21.80;;;;;;4946383;28;20439;-74
2022/02/27 13:40:08;;;;;;;;;;;10.80;21.70;;;;;;4961933;28;19962;-75
2022/02/27 13:42:35;;;;;;;;;;;10.80;21.40;;;;;;4952617;28;21202;-74
2022/02/27 13:45:03;;;;;;;;;;;10.80;20.80;;;;;;4949125;28;19926;-74
2022/02/27 13:47:32;;;;;;;;;;;10.80;21.60;;;;;;4934832;28;21023;-73
2022/02/27 13:49:59;;;;;;;;;;;10.80;20.50;;;;;;4937009;28;19931;-73
2022/02/27 13:52:27;;;;;;;;;;;10.60;21.30;;;;;;4942551;28;19954;-72
2022/02/27 13:54:56;;;;;;;;;;;10.60;21.40;;;;;;4941686;28;19934;-71
2022/02/27 13:57:33;;;;;;;;;;;10.60;20.90;;;;;;4950469;28;20381;-72
2022/02/27 14:00:07;;;;;;;;;;;10.70;21.00;;;;;;4945286;28;19927;-71
2022/02/27 14:02:40;;;;;;;;;;;10.80;20.30;;;;;;4932647;28;19930;-71
2022/02/27 14:05:08;;;;;;;;;;;10.80;21.00;;;;;;4932514;28;19934;-74
2022/02/27 14:07:37;;;;;;;;;;;10.80;20.40;;;;;;4935285;28;20033;-70
2022/02/27 14:10:12;;;;;;;;;;;10.80;20.50;;;;;;4934305;28;19938;-71
2022/02/27 14:12:56;;;;;;;;;;;10.90;20.40;;;;;;4933124;28;19933;-73
2022/02/27 14:15:30;;;;;;;;;;;10.90;19.80;;;;;;4932981;28;20587;-72
2022/02/27 14:17:57;;;;;;;;;;;10.90;20.70;;;;;;4933893;28;20020;-71
2022/02/27 14:20:32;;;;;;;;;;;10.80;19.20;;;;;;4930469;28;19937;-72
2022/02/27 14:23:05;;;;;;;;;;;10.70;20.10;;;;;;4931649;28;20590;-73
2022/02/27 14:25:36;;;;;;;;;;;10.70;20.50;;;;;;4931775;28;19934;-72
2022/02/27 14:28:09;;;;;;;;;;;10.60;19.30;;;;;;4930087;28;19964;-72
2022/02/27 14:30:38;;;;;;;;;;;10.90;19.90;;;;;;4931555;28;20017;-72